createdAt,value
2019-04-10T00:00:51.116Z,94436.64
2019-04-10T00:03:28.928Z,94433.62
2019-04-10T00:05:47.991Z,94438.09
2019-04-10T00:08:15.321Z,94440.56
2019-04-10T00:10:43.726Z,94436.58
2019-04-10T00:13:12.112Z,94440.56
2019-04-10T00:15:40.307Z,94439.83
2019-04-10T00:18:07.788Z,94433.77
2019-04-10T00:20:35.096Z,94436.43
2019-04-10T00:23:02.564Z,94435.22
2019-04-10T00:25:29.849Z,94431.89
2019-04-10T00:27:57.119Z,94434.98
2019-04-10T00:30:25.046Z,94429.55
2019-04-10T00:32:52.460Z,94428.33
2019-04-10T00:35:19.760Z,94431.89
2019-04-10T00:37:47.121Z,94432.85
2019-04-10T00:40:15.129Z,94429.49
2019-04-10T00:42:43.281Z,94425.02
2019-04-10T00:45:11.265Z,94426.39
2019-04-10T00:47:39.280Z,94420.59
2019-04-10T00:50:06.831Z,94428.05
2019-04-10T00:52:34.496Z,94422.81
2019-04-10T00:55:01.917Z,94425.44
2019-04-10T00:57:29.622Z,94421.27
2019-04-10T00:59:57.033Z,94419.84
2019-04-10T01:02:24.829Z,94416.95
2019-04-10T01:04:52.985Z,94422.33
2019-04-10T01:07:32.694Z,94421.42
2019-04-10T01:09:50.029Z,94419.08
2019-04-10T01:12:17.315Z,94419.14
2019-04-10T01:14:45.563Z,94422.38
2019-04-10T01:17:13.692Z,94423.21
2019-04-10T01:19:41.860Z,94420.09
2019-04-10T01:22:09.269Z,94423.09
2019-04-10T01:24:37.558Z,94418.65
2019-04-10T01:27:06.018Z,94414.19
2019-04-10T01:29:33.630Z,94420.59
2019-04-10T01:32:01.599Z,94410.69
2019-04-10T01:34:29.551Z,94416.41
2019-04-10T01:36:56.906Z,94418.55
2019-04-10T01:39:28.444Z,94418.80
2019-04-10T01:41:56.470Z,94414.67
2019-04-10T01:44:24.724Z,94409.92
2019-04-10T01:46:52.951Z,94413.13
2019-04-10T01:49:20.274Z,94417.97
2019-04-10T01:51:47.724Z,94410.95
2019-04-10T01:54:15.212Z,94406.14
2019-04-10T01:56:42.455Z,94412.73
2019-04-10T01:59:09.976Z,94412.11
2019-04-10T02:01:48.392Z,94405.77
2019-04-10T02:04:16.339Z,94409.92
2019-04-10T02:06:44.116Z,94412.20
2019-04-10T02:09:11.399Z,94411.28
2019-04-10T02:11:39.771Z,94409.34
2019-04-10T02:14:07.816Z,94408.27
2019-04-10T02:16:35.221Z,94406.34
2019-04-10T02:19:02.442Z,94399.90
2019-04-10T02:21:29.731Z,94396.74
2019-04-10T02:23:57.000Z,94401.45
2019-04-10T02:26:24.255Z,94397.48
2019-04-10T02:28:51.550Z,94395.01
2019-04-10T02:31:19.268Z,94390.60
2019-04-10T02:33:49.539Z,94391.08
2019-04-10T02:36:17.433Z,94394.67
2019-04-10T02:38:59.230Z,94391.80
2019-04-10T02:41:14.264Z,94391.91
2019-04-10T02:43:42.947Z,94387.44
2019-04-10T02:46:11.353Z,94390.01
2019-04-10T02:48:39.420Z,94390.35
2019-04-10T02:51:07.732Z,94385.27
2019-04-10T02:53:37.283Z,94387.34
2019-04-10T02:56:05.401Z,94391.66
2019-04-10T02:58:34.381Z,94393.35
2019-04-10T03:01:03.076Z,94393.70
2019-04-10T03:03:30.891Z,94395.03
2019-04-10T03:05:58.709Z,94392.31
2019-04-10T03:08:43.162Z,94389.81
2019-04-10T03:11:00.436Z,94394.42
2019-04-10T03:13:26.929Z,94392.63
2019-04-10T03:15:53.672Z,94387.73
2019-04-10T03:18:21.055Z,94390.84
2019-04-10T03:20:48.787Z,94386.82
2019-04-10T03:23:16.182Z,94388.06
2019-04-10T03:25:43.438Z,94384.82
2019-04-10T03:28:11.182Z,94387.73
2019-04-10T03:30:39.554Z,94382.30
2019-04-10T03:33:21.926Z,94380.91
2019-04-10T03:35:49.568Z,94390.01
2019-04-10T03:38:18.181Z,94384.53
2019-04-10T03:40:45.871Z,94391.05
2019-04-10T03:43:13.959Z,94385.48
2019-04-10T03:45:41.362Z,94388.64
2019-04-10T03:48:08.639Z,94386.46
2019-04-10T03:50:36.248Z,94391.25
2019-04-10T03:53:03.680Z,94389.91
2019-04-10T03:55:32.642Z,94388.16
2019-04-10T03:58:00.776Z,94391.73
2019-04-10T04:00:28.219Z,94386.98
2019-04-10T04:02:56.009Z,94388.50
2019-04-10T04:05:23.449Z,94389.73
2019-04-10T04:07:50.759Z,94386.69
2019-04-10T04:10:18.363Z,94386.79
2019-04-10T04:12:46.696Z,94389.28
2019-04-10T04:15:14.101Z,94388.58
2019-04-10T04:17:41.339Z,94386.94
2019-04-10T04:20:08.766Z,94393.05
2019-04-10T04:22:36.991Z,94390.45
2019-04-10T04:25:04.660Z,94391.59
2019-04-10T04:27:31.932Z,94385.06
2019-04-10T04:29:59.674Z,94395.75
2019-04-10T04:32:26.990Z,94392.84
2019-04-10T04:34:54.331Z,94398.43
2019-04-10T04:37:21.559Z,94399.20
2019-04-10T04:39:48.802Z,94397.31
2019-04-10T04:42:17.029Z,94399.34
2019-04-10T04:44:45.406Z,94402.28
2019-04-10T04:47:13.390Z,94404.00
2019-04-10T04:49:40.773Z,94402.45
2019-04-10T04:52:10.397Z,94401.83
2019-04-10T04:54:37.331Z,94405.97
2019-04-10T04:57:04.604Z,94403.16
2019-04-10T04:59:34.599Z,94407.78
2019-04-10T05:02:02.145Z,94409.45
2019-04-10T05:04:31.930Z,94412.94
2019-04-10T05:06:58.633Z,94411.29
2019-04-10T05:09:33.750Z,94410.31
2019-04-10T05:11:55.160Z,94415.42
2019-04-10T05:14:23.695Z,94416.43
2019-04-10T05:16:52.030Z,94417.55
2019-04-10T05:19:19.627Z,94416.78
2019-04-10T05:21:47.678Z,94414.12
2019-04-10T05:24:15.796Z,94415.77
2019-04-10T05:26:43.196Z,94419.48
2019-04-10T05:29:11.125Z,94418.51
2019-04-10T05:31:38.821Z,94421.19
2019-04-10T05:34:06.181Z,94412.31
2019-04-10T05:36:33.589Z,94420.25
2019-04-10T05:39:00.848Z,94417.17
2019-04-10T05:41:29.170Z,94423.00
2019-04-10T05:43:56.717Z,94424.83
2019-04-10T05:46:24.990Z,94422.71
2019-04-10T05:48:52.604Z,94422.86
2019-04-10T05:51:21.193Z,94429.41
2019-04-10T05:53:51.362Z,94423.53
2019-04-10T05:56:19.213Z,94431.92
2019-04-10T05:58:47.029Z,94426.98
2019-04-10T06:01:14.414Z,94430.29
2019-04-10T06:03:42.788Z,94428.13
2019-04-10T06:06:10.380Z,94425.16
2019-04-10T06:08:41.268Z,94433.67
2019-04-10T06:11:08.788Z,94435.45
2019-04-10T06:13:36.830Z,94430.18
2019-04-10T06:16:05.533Z,94431.88
2019-04-10T06:18:33.354Z,94432.20
2019-04-10T06:21:00.913Z,94429.17
2019-04-10T06:23:28.222Z,94432.42
2019-04-10T06:25:56.353Z,94428.92
2019-04-10T06:28:27.857Z,94424.73
2019-04-10T06:30:56.827Z,94422.91
2019-04-10T06:33:25.496Z,94421.95
2019-04-10T06:35:53.280Z,94426.03
2019-04-10T06:38:21.012Z,94429.80
2019-04-10T06:40:48.521Z,94429.26
2019-04-10T06:43:16.952Z,94424.22
2019-04-10T06:45:44.367Z,94422.59
2019-04-10T06:48:11.685Z,94421.34
2019-04-10T06:50:39.257Z,94423.72
2019-04-10T06:53:06.909Z,94429.47
2019-04-10T06:55:34.341Z,94427.04
2019-04-10T06:58:02.620Z,94428.92
2019-04-10T07:00:30.688Z,94425.66
2019-04-10T07:02:58.958Z,94427.68
2019-04-10T07:05:37.161Z,94432.05
2019-04-10T07:08:00.589Z,94422.81
2019-04-10T07:10:29.844Z,94427.45
2019-04-10T07:12:54.002Z,94428.20
2019-04-10T07:15:23.844Z,94427.80
2019-04-10T07:17:51.323Z,94430.06
2019-04-10T07:20:22.436Z,94431.44
2019-04-10T07:22:51.167Z,94431.97
2019-04-10T07:25:19.632Z,94442.38
2019-04-10T07:27:47.840Z,94438.51
2019-04-10T07:30:15.440Z,94438.28
2019-04-10T07:32:46.427Z,94440.06
2019-04-10T07:35:15.335Z,94440.13
2019-04-10T07:37:42.524Z,94436.14
2019-04-10T07:40:10.038Z,94440.76
2019-04-10T07:42:41.136Z,94443.17
2019-04-10T07:45:07.738Z,94439.53
2019-04-10T07:47:35.644Z,94442.40
2019-04-10T07:50:04.847Z,94436.68
2019-04-10T07:52:33.033Z,94438.97
2019-04-10T07:55:01.015Z,94440.13
2019-04-10T07:57:28.697Z,94441.91
2019-04-10T07:59:56.791Z,94446.28
2019-04-10T08:02:24.187Z,94439.55
2019-04-10T08:04:51.709Z,94447.97
2019-04-10T08:07:26.728Z,94446.48
2019-04-10T08:09:48.219Z,94450.02
2019-04-10T08:12:15.619Z,94453.06
2019-04-10T08:14:42.920Z,94453.48
2019-04-10T08:17:10.239Z,94453.25
2019-04-10T08:19:37.501Z,94453.55
2019-04-10T08:22:06.183Z,94459.37
2019-04-10T08:24:34.426Z,94460.83
2019-04-10T08:27:03.349Z,94464.07
2019-04-10T08:29:30.716Z,94464.27
2019-04-10T08:32:01.777Z,94462.91
2019-04-10T08:34:29.113Z,94466.83
2019-04-10T08:36:56.800Z,94461.73
2019-04-10T08:39:35.259Z,94465.72
2019-04-10T08:41:54.389Z,94473.86
2019-04-10T08:44:24.401Z,94469.59
2019-04-10T08:46:58.256Z,94472.64
2019-04-10T08:49:36.841Z,94482.06
2019-04-10T08:52:08.289Z,94472.07
2019-04-10T08:54:36.373Z,94481.52
2019-04-10T08:57:03.705Z,94480.27
2019-04-10T08:59:31.940Z,94473.72
2019-04-10T09:01:59.871Z,94479.03
2019-04-10T09:04:28.697Z,94475.39
2019-04-10T09:06:56.223Z,94481.38
2019-04-10T09:09:23.691Z,94476.82
2019-04-10T09:11:51.582Z,94480.55
2019-04-10T09:14:19.142Z,94480.55
2019-04-10T09:16:46.849Z,94484.14
2019-04-10T09:19:14.490Z,94486.52
2019-04-10T09:21:41.776Z,94487.92
2019-04-10T09:24:10.187Z,94490.11
2019-04-10T09:26:38.241Z,94486.52
2019-04-10T09:29:06.747Z,94483.85
2019-04-10T09:31:34.612Z,94488.48
2019-04-10T09:34:01.900Z,94489.71
2019-04-10T09:36:29.205Z,94485.22
2019-04-10T09:38:56.619Z,94483.66
2019-04-10T09:41:23.881Z,94484.94
2019-04-10T09:43:51.129Z,94482.75
2019-04-10T09:46:18.440Z,94482.34
2019-04-10T09:48:45.700Z,94478.99
2019-04-10T09:51:16.228Z,94483.16
2019-04-10T09:53:43.336Z,94479.92
2019-04-10T09:56:11.696Z,94477.85
2019-04-10T09:58:39.183Z,94475.08
2019-04-10T10:01:08.332Z,94473.41
2019-04-10T10:03:36.710Z,94466.66
2019-04-10T10:06:04.097Z,94464.72
2019-04-10T10:08:31.699Z,94467.87
2019-04-10T10:10:59.766Z,94463.89
2019-04-10T10:13:27.721Z,94462.00
2019-04-10T10:15:55.157Z,94464.16
2019-04-10T10:18:23.428Z,94457.44
2019-04-10T10:20:52.186Z,94454.91
2019-04-10T10:23:20.052Z,94453.37
2019-04-10T10:25:47.833Z,94448.76
2019-04-10T10:28:15.324Z,94444.87
2019-04-10T10:30:43.979Z,94449.48
2019-04-10T10:33:11.403Z,94444.30
2019-04-10T10:35:39.006Z,94446.97
2019-04-10T10:38:07.603Z,94441.93
2019-04-10T10:40:35.911Z,94445.30
2019-04-10T10:43:04.342Z,94441.13
2019-04-10T10:45:31.951Z,94436.78
2019-04-10T10:47:59.261Z,94441.20
2019-04-10T10:50:29.378Z,94444.36
2019-04-10T10:52:57.584Z,94452.20
2019-04-10T10:55:27.557Z,94452.71
2019-04-10T10:57:55.438Z,94453.26
2019-04-10T11:00:23.162Z,94458.52
2019-04-10T11:02:50.465Z,94459.77
2019-04-10T11:05:19.052Z,94448.36
2019-04-10T11:07:47.117Z,94450.41
2019-04-10T11:10:20.561Z,94449.06
2019-04-10T11:12:44.699Z,94446.72
2019-04-10T11:15:12.413Z,94449.25
2019-04-10T11:17:40.422Z,94440.95
2019-04-10T11:20:10.114Z,94441.84
2019-04-10T11:22:37.833Z,94438.14
2019-04-10T11:25:06.114Z,94432.64
2019-04-10T11:27:34.333Z,94435.66
2019-04-10T11:30:03.491Z,94431.98
2019-04-10T11:32:31.246Z,94431.77
2019-04-10T11:34:59.033Z,94432.94
2019-04-10T11:37:36.642Z,94431.72
2019-04-10T11:39:56.285Z,94422.70
2019-04-10T11:42:24.013Z,94424.01
2019-04-10T11:44:53.846Z,94418.98
2019-04-10T11:47:23.593Z,94423.72
2019-04-10T11:49:49.837Z,94417.75
2019-04-10T11:52:19.198Z,94420.25
2019-04-10T11:54:48.549Z,94415.09
2019-04-10T11:57:17.684Z,94414.06
2019-04-10T11:59:47.418Z,94414.09
2019-04-10T12:02:16.543Z,94416.84
2019-04-10T12:04:52.121Z,94418.66
2019-04-10T12:07:49.207Z,94413.52
2019-04-10T12:12:11.195Z,94414.67
2019-04-10T12:14:39.611Z,94413.59
2019-04-10T12:17:07.174Z,94412.33
2019-04-10T12:19:34.457Z,94413.63
2019-04-10T12:22:06.382Z,94410.98
2019-04-10T12:24:35.016Z,94415.94
2019-04-10T12:27:02.455Z,94413.48
2019-04-10T12:29:30.862Z,94413.33
2019-04-10T12:31:58.577Z,94410.69
2019-04-10T12:34:26.519Z,94410.50
2019-04-10T12:36:55.139Z,94408.38
2019-04-10T12:39:22.786Z,94408.82
2019-04-10T12:41:50.533Z,94402.88
2019-04-10T12:44:17.893Z,94401.12
2019-04-10T12:46:45.668Z,94411.34
2019-04-10T12:49:13.153Z,94406.01
2019-04-10T12:51:41.479Z,94405.22
2019-04-10T12:54:09.974Z,94402.78
2019-04-10T12:56:37.948Z,94401.13
2019-04-10T12:59:06.928Z,94410.77
2019-04-10T13:01:34.441Z,94407.79
2019-04-10T13:04:01.750Z,94405.80
2019-04-10T13:06:29.753Z,94405.28
2019-04-10T13:09:05.729Z,94406.83
2019-04-10T13:11:26.838Z,94401.63
2019-04-10T13:13:54.677Z,94397.55
2019-04-10T13:16:22.094Z,94393.80
2019-04-10T13:18:49.427Z,94400.09
2019-04-10T13:21:17.990Z,94392.67
2019-04-10T13:23:46.835Z,94397.83
2019-04-10T13:26:15.559Z,94392.31
2019-04-10T13:28:43.488Z,94398.72
2019-04-10T13:31:11.059Z,94405.09
2019-04-10T13:33:38.593Z,94404.61
2019-04-10T13:36:07.121Z,94404.48
2019-04-10T13:38:35.804Z,94405.00
2019-04-10T13:41:04.114Z,94406.48
2019-04-10T13:43:31.436Z,94408.16
2019-04-10T13:45:58.749Z,94413.84
2019-04-10T13:48:26.240Z,94406.82
2019-04-10T13:50:53.562Z,94413.72
2019-04-10T13:53:21.706Z,94415.61
2019-04-10T13:55:49.245Z,94418.34
2019-04-10T13:58:17.267Z,94415.18
2019-04-10T14:00:45.152Z,94419.13
2019-04-10T14:03:12.889Z,94410.13
2019-04-10T14:05:41.202Z,94419.50
2019-04-10T14:08:08.908Z,94406.95
2019-04-10T14:10:39.432Z,94415.18
2019-04-10T14:13:05.732Z,94421.61
2019-04-10T14:15:33.772Z,94415.53
2019-04-10T14:18:01.970Z,94421.81
2019-04-10T14:20:29.387Z,94413.38
2019-04-10T14:23:02.140Z,94419.72
2019-04-10T14:25:44.635Z,94424.30
2019-04-10T14:28:13.043Z,94423.55
2019-04-10T14:30:40.946Z,94421.21
2019-04-10T14:33:08.525Z,94421.81
2019-04-10T14:35:35.824Z,94428.13
2019-04-10T14:38:04.468Z,94426.34
2019-04-10T14:40:32.501Z,94428.25
2019-04-10T14:42:59.868Z,94426.17
2019-04-10T14:45:27.801Z,94435.88
2019-04-10T14:47:55.927Z,94436.11
2019-04-10T14:50:24.804Z,94442.27
2019-04-10T14:52:53.716Z,94436.78
2019-04-10T14:55:22.092Z,94443.42
2019-04-10T14:57:50.839Z,94449.23
2019-04-10T15:00:46.743Z,94440.41
2019-04-10T15:03:14.560Z,94454.59
2019-04-10T15:05:47.794Z,94461.25
2019-04-10T15:08:11.353Z,94461.88
2019-04-10T15:10:38.762Z,94473.98
2019-04-10T15:13:10.085Z,94481.99
2019-04-10T15:15:36.598Z,94475.97
2019-04-10T15:18:04.637Z,94485.66
2019-04-10T15:20:33.397Z,94474.85
2019-04-10T15:23:01.065Z,94477.38
2019-04-10T15:25:28.570Z,94472.31
2019-04-10T15:27:55.992Z,94477.02
2019-04-10T15:30:23.726Z,94474.89
2019-04-10T15:32:51.353Z,94482.25
2019-04-10T15:35:18.774Z,94479.19
2019-04-10T15:37:47.257Z,94479.94
2019-04-10T15:40:22.167Z,94479.86
2019-04-10T15:42:45.974Z,94486.80
2019-04-10T15:45:14.755Z,94483.94
2019-04-10T15:47:50.663Z,94481.89
2019-04-10T15:50:14.168Z,94493.06
2019-04-10T15:52:42.996Z,94480.91
2019-04-10T15:55:11.190Z,94486.12
2019-04-10T15:57:48.800Z,94490.44
2019-04-10T16:00:10.640Z,94489.31
2019-04-10T16:02:38.676Z,94504.38
2019-04-10T16:05:07.258Z,94504.45
2019-04-10T16:07:34.874Z,94504.64
2019-04-10T16:10:21.268Z,94510.98
2019-04-10T16:12:49.879Z,94508.34
2019-04-10T16:15:17.917Z,94512.63
2019-04-10T16:17:58.842Z,94520.08
2019-04-10T16:20:29.435Z,94516.44
2019-04-10T16:23:18.930Z,94520.45
2019-04-10T16:25:52.237Z,94522.40
2019-04-10T16:28:20.729Z,94524.53
2019-04-10T16:30:49.280Z,94527.34
2019-04-10T16:33:17.129Z,94519.63
2019-04-10T16:35:46.113Z,94518.28
2019-04-10T16:38:14.247Z,94515.28
2019-04-10T16:40:42.073Z,94512.32
2019-04-10T16:43:09.711Z,94516.18
2019-04-10T16:45:38.559Z,94514.38
2019-04-10T16:48:06.523Z,94513.92
2019-04-10T16:50:34.290Z,94513.14
2019-04-10T16:53:01.827Z,94519.52
2019-04-10T16:55:29.560Z,94519.88
2019-04-10T16:57:57.599Z,94525.73
2019-04-10T17:00:25.305Z,94530.83
2019-04-10T17:02:53.130Z,94530.36
2019-04-10T17:05:21.095Z,94533.78
2019-04-10T17:07:49.572Z,94536.28
2019-04-10T17:10:24.099Z,94540.75
2019-04-10T17:12:50.024Z,94542.96
2019-04-10T17:15:18.278Z,94546.35
2019-04-10T17:17:46.475Z,94557.94
2019-04-10T17:20:15.970Z,94548.44
2019-04-10T17:22:47.212Z,94550.16
2019-04-10T17:25:13.847Z,94552.36
2019-04-10T17:27:41.660Z,94551.61
2019-04-10T17:30:09.649Z,94549.19
2019-04-10T17:32:38.641Z,94558.84
2019-04-10T17:35:09.500Z,94556.87
2019-04-10T17:37:38.307Z,94553.70
2019-04-10T17:40:08.723Z,94558.47
2019-04-10T17:42:37.857Z,94557.89
2019-04-10T17:45:07.089Z,94561.91
2019-04-10T17:47:34.952Z,94564.45
2019-04-10T17:50:03.738Z,94565.22
2019-04-10T17:52:34.713Z,94563.42
2019-04-10T17:55:01.533Z,94567.02
2019-04-10T17:57:38.154Z,94570.40
2019-04-10T17:59:59.857Z,94571.69
2019-04-10T18:02:28.965Z,94573.42
2019-04-10T18:04:58.025Z,94575.47
2019-04-10T18:07:28.330Z,94581.63
2019-04-10T18:09:55.986Z,94581.00
2019-04-10T18:12:24.304Z,94583.68
2019-04-10T18:14:52.382Z,94590.60
2019-04-10T18:17:20.523Z,94597.02
2019-04-10T18:19:54.584Z,94597.27
2019-04-10T18:22:47.063Z,94593.33
2019-04-10T18:25:15.875Z,94597.83
2019-04-10T18:27:44.869Z,94600.80
2019-04-10T18:30:14.112Z,94612.58
2019-04-10T18:32:42.191Z,94621.34
2019-04-10T18:35:10.924Z,94619.96
2019-04-10T18:37:44.651Z,94631.91
2019-04-10T18:40:12.812Z,94630.74
2019-04-10T18:42:41.514Z,94636.23
2019-04-10T18:45:11.180Z,94642.59
2019-04-10T18:47:39.450Z,94642.59
2019-04-10T18:50:07.901Z,94648.74
2019-04-10T18:52:37.389Z,94653.06
2019-04-10T18:55:05.994Z,94649.27
2019-04-10T18:57:35.214Z,94650.27
2019-04-10T19:00:24.403Z,94650.98
2019-04-10T19:03:01.608Z,94652.78
2019-04-10T19:05:34.030Z,94649.31
2019-04-10T19:08:11.680Z,94644.84
2019-04-10T19:10:43.267Z,94649.13
2019-04-10T19:13:15.072Z,94650.59
2019-04-10T19:15:46.956Z,94658.45
2019-04-10T19:18:17.423Z,94660.09
2019-04-10T19:20:46.927Z,94656.31
2019-04-10T19:23:22.394Z,94661.59
2019-04-10T19:25:51.243Z,94660.89
2019-04-10T19:28:33.345Z,94666.31
2019-04-10T19:31:09.250Z,94667.05
2019-04-10T19:33:26.333Z,94666.17
2019-04-10T19:35:56.577Z,94662.50
2019-04-10T19:38:25.258Z,94666.22
2019-04-10T19:40:56.339Z,94668.27
2019-04-10T19:43:27.562Z,94670.25
2019-04-10T19:45:56.374Z,94673.33
2019-04-10T19:48:25.459Z,94674.61
2019-04-10T19:50:55.227Z,94669.80
2019-04-10T19:53:23.005Z,94677.92
2019-04-10T19:55:51.778Z,94683.46
2019-04-10T19:58:19.695Z,94682.47
2019-04-10T20:00:48.990Z,94686.19
2019-04-10T20:03:17.465Z,94685.84
2019-04-10T20:05:46.215Z,94687.71
2019-04-10T20:08:15.399Z,94689.06
2019-04-10T20:10:45.474Z,94691.89
2019-04-10T20:13:14.449Z,94695.86
2019-04-10T20:15:45.144Z,94692.85
2019-04-10T20:18:13.119Z,94697.09
2019-04-10T20:20:43.700Z,94697.29
2019-04-10T20:23:14.083Z,94690.86
2019-04-10T20:25:42.905Z,94695.86
2019-04-10T20:28:10.869Z,94692.58
2019-04-10T20:30:38.744Z,94690.86
2019-04-10T20:33:06.500Z,94698.72
2019-04-10T20:35:34.562Z,94698.14
2019-04-10T20:38:03.070Z,94701.13
2019-04-10T20:40:31.899Z,94704.16
2019-04-10T20:42:59.641Z,94700.20
2019-04-10T20:45:27.469Z,94706.41
2019-04-10T20:47:56.121Z,94701.89
2019-04-10T20:50:23.970Z,94708.05
2019-04-10T20:52:51.728Z,94702.55
2019-04-10T20:55:19.693Z,94712.98
2019-04-10T20:57:49.999Z,94707.37
2019-04-10T21:00:26.816Z,94708.84
2019-04-10T21:02:55.072Z,94715.59
2019-04-10T21:05:24.102Z,94708.70
2019-04-10T21:07:52.308Z,94713.05
2019-04-10T21:10:19.804Z,94715.05
2019-04-10T21:12:48.291Z,94715.43
2019-04-10T21:15:15.772Z,94718.17
2019-04-10T21:17:43.424Z,94720.80
2019-04-10T21:20:13.291Z,94725.48
2019-04-10T21:22:40.486Z,94720.84
2019-04-10T21:25:08.227Z,94727.83
2019-04-10T21:27:36.029Z,94725.34
2019-04-10T21:30:24.214Z,94732.97
2019-04-10T21:33:00.176Z,94723.89
2019-04-10T21:35:32.735Z,94725.41
2019-04-10T21:38:00.172Z,94724.45
2019-04-10T21:40:27.521Z,94731.75
2019-04-10T21:42:56.031Z,94728.87
2019-04-10T21:45:24.376Z,94723.02
2019-04-10T21:47:52.332Z,94716.47
2019-04-10T21:50:21.466Z,94713.80
2019-04-10T21:52:49.757Z,94719.64
2019-04-10T21:55:17.243Z,94724.56
2019-04-10T21:57:44.812Z,94728.14
2019-04-10T22:00:14.323Z,94725.17
2019-04-10T22:02:42.133Z,94723.17
2019-04-10T22:05:10.312Z,94721.81
2019-04-10T22:08:12.585Z,94722.13
2019-04-10T22:10:45.191Z,94721.89
2019-04-10T22:13:13.502Z,94716.63
2019-04-10T22:15:44.934Z,94729.95
2019-04-10T22:18:12.844Z,94722.39
2019-04-10T22:20:40.244Z,94723.06
2019-04-10T22:23:07.626Z,94721.86
2019-04-10T22:25:35.332Z,94725.91
2019-04-10T22:28:02.837Z,94727.29
2019-04-10T22:30:30.181Z,94724.47
2019-04-10T22:32:57.722Z,94723.17
2019-04-10T22:35:25.793Z,94721.80
2019-04-10T22:37:54.433Z,94728.48
2019-04-10T22:40:21.949Z,94725.66
2019-04-10T22:42:49.860Z,94724.83
2019-04-10T22:45:27.972Z,94728.97
2019-04-10T22:47:56.780Z,94726.59
2019-04-10T22:50:24.477Z,94727.30
2019-04-10T22:52:52.852Z,94725.78
2019-04-10T22:55:21.770Z,94724.88
2019-04-10T22:57:50.525Z,94726.23
2019-04-10T23:00:30.317Z,94725.98
2019-04-10T23:02:57.845Z,94726.98
2019-04-10T23:05:25.222Z,94729.55
2019-04-10T23:07:53.423Z,94733.33
2019-04-10T23:10:21.203Z,94740.72
2019-04-10T23:12:58.132Z,94733.81
2019-04-10T23:15:18.098Z,94733.20
2019-04-10T23:17:45.452Z,94731.48
2019-04-10T23:20:12.799Z,94731.28
2019-04-10T23:22:41.062Z,94735.06
2019-04-10T23:25:09.950Z,94738.02
2019-04-10T23:27:37.740Z,94736.33
2019-04-10T23:30:08.646Z,94732.80
2019-04-10T23:32:36.080Z,94733.68
2019-04-10T23:35:03.378Z,94734.85
2019-04-10T23:37:30.943Z,94731.58
2019-04-10T23:39:58.718Z,94738.23
2019-04-10T23:42:26.176Z,94731.48
2019-04-10T23:44:55.400Z,94735.16
2019-04-10T23:47:22.959Z,94734.44
2019-04-10T23:49:50.277Z,94725.77
2019-04-10T23:52:17.907Z,94733.80
2019-04-10T23:54:45.818Z,94728.48
2019-04-10T23:57:13.618Z,94723.42
2019-04-10T23:59:40.941Z,94732.44
